Time;durP1;ratioP1;P1;durP2;ratioP2;P2;SDS_P1;SDS_P2;PMS_P1;PMS_P2;Temp;Humidity;BMP_temperature;BMP_pressure;BME280_temperature;BME280_humidity;BME280_pressure;Samples;Min_cycle;Max_cycle;Signal;HPM_P1;HPM_P2
2024/03/07 00:02:19;;;;;;;54.20;50.37;;;6.80;99.90;;;;;;5037306;28;20380;-86
2024/03/07 00:04:45;;;;;;;61.42;57.72;;;6.80;99.90;;;;;;5051438;28;20033;-85
2024/03/07 00:07:11;;;;;;;47.22;43.97;;;6.70;99.90;;;;;;5041351;28;20052;-86
2024/03/07 00:09:38;;;;;;;48.80;45.50;;;6.70;99.90;;;;;;5031902;28;20025;-85
2024/03/07 00:12:05;;;;;;;64.72;60.60;;;6.70;99.90;;;;;;5047472;28;20037;-85
2024/03/07 00:14:31;;;;;;;80.73;75.60;;;6.90;99.90;;;;;;5049742;28;20150;-86
2024/03/07 00:16:59;;;;;;;59.20;54.33;;;6.80;99.90;;;;;;5050454;28;20045;-86
2024/03/07 00:19:26;;;;;;;73.38;68.90;;;7.00;99.90;;;;;;5043385;28;20026;-85
2024/03/07 00:21:57;;;;;;;84.23;79.27;;;6.90;99.90;;;;;;5045794;28;20427;-86
2024/03/07 00:24:24;;;;;;;76.43;71.75;;;6.90;99.90;;;;;;5036945;28;20049;-85
2024/03/07 00:26:51;;;;;;;65.63;61.63;;;6.90;99.90;;;;;;5045129;28;20608;-86
2024/03/07 00:29:20;;;;;;;81.00;75.70;;;6.80;99.90;;;;;;5044324;28;20045;-85
2024/03/07 00:31:46;;;;;;;64.13;59.93;;;6.80;99.90;;;;;;5032808;28;20033;-86
2024/03/07 00:34:16;;;;;;;60.75;56.65;;;6.60;99.90;;;;;;5044204;28;20030;-86
2024/03/07 00:36:43;;;;;;;56.93;53.47;;;6.50;99.90;;;;;;5051602;28;20064;-86
2024/03/07 00:39:11;;;;;;;64.73;60.93;;;6.40;99.90;;;;;;5045343;28;20025;-87
2024/03/07 00:41:39;;;;;;;69.53;65.33;;;6.50;99.90;;;;;;5043450;28;20045;-86
2024/03/07 00:44:06;;;;;;;84.67;79.77;;;6.40;99.90;;;;;;5038990;28;20049;-86
2024/03/07 00:46:32;;;;;;;56.23;52.50;;;6.40;99.90;;;;;;5045941;28;20037;-85
2024/03/07 00:48:58;;;;;;;76.93;72.17;;;6.40;99.90;;;;;;5043505;28;20453;-85
2024/03/07 00:51:24;;;;;;;70.17;65.57;;;6.30;99.90;;;;;;5055257;28;20037;-85
2024/03/07 00:53:50;;;;;;;63.50;59.73;;;6.40;99.90;;;;;;5045271;28;20503;-85
2024/03/07 00:56:16;;;;;;;59.00;55.03;;;6.50;99.90;;;;;;5044339;28;20029;-85
2024/03/07 00:58:42;;;;;;;80.23;75.53;;;6.40;99.90;;;;;;5053183;28;20438;-86
2024/03/07 01:01:11;;;;;;;62.37;58.27;;;6.20;99.90;;;;;;5054556;28;20037;-85
2024/03/07 01:03:37;;;;;;;60.63;56.60;;;6.20;99.90;;;;;;5046703;28;20044;-86
2024/03/07 01:06:03;;;;;;;70.93;66.80;;;6.20;99.90;;;;;;5042314;28;20104;-85
2024/03/07 01:08:32;;;;;;;53.30;49.77;;;6.30;99.90;;;;;;5039932;28;20045;-85
2024/03/07 01:10:58;;;;;;;54.07;50.47;;;6.20;99.90;;;;;;5034877;28;20037;-84
2024/03/07 01:13:24;;;;;;;58.13;54.27;;;6.20;99.90;;;;;;5040483;28;20048;-85
2024/03/07 01:15:50;;;;;;;57.33;53.70;;;6.30;99.90;;;;;;5053709;28;20047;-85
2024/03/07 01:18:17;;;;;;;56.77;53.20;;;6.40;99.90;;;;;;5054876;28;20036;-86
2024/03/07 01:20:43;;;;;;;104.47;97.97;;;6.30;99.90;;;;;;5040484;28;20513;-85
2024/03/07 01:23:10;;;;;;;68.53;64.43;;;6.10;99.90;;;;;;5051607;28;20475;-85
2024/03/07 01:25:36;;;;;;;56.80;53.00;;;6.10;99.90;;;;;;5054501;28;20045;-86
2024/03/07 01:28:04;;;;;;;56.13;52.63;;;6.00;99.90;;;;;;5054907;28;20033;-85
2024/03/07 01:30:30;;;;;;;49.47;46.27;;;6.00;99.90;;;;;;5042533;28;20052;-86
2024/03/07 01:32:56;;;;;;;48.97;45.80;;;6.00;99.90;;;;;;5053495;28;20029;-85
2024/03/07 01:35:22;;;;;;;55.57;51.67;;;6.00;99.90;;;;;;5050980;28;20044;-85
2024/03/07 01:37:49;;;;;;;45.33;41.97;;;6.10;99.90;;;;;;5054468;28;20029;-85
2024/03/07 01:40:15;;;;;;;55.40;51.65;;;6.10;99.90;;;;;;5040208;28;20042;-86
2024/03/07 01:42:41;;;;;;;51.77;48.13;;;6.10;99.90;;;;;;5054117;28;20048;-86
2024/03/07 01:45:09;;;;;;;50.80;47.17;;;6.00;99.90;;;;;;5034754;28;20056;-84
2024/03/07 01:47:38;;;;;;;45.60;42.60;;;6.00;99.90;;;;;;5033828;28;20061;-85
2024/03/07 01:50:05;;;;;;;44.63;41.27;;;5.90;99.90;;;;;;5044775;28;20415;-85
2024/03/07 01:52:31;;;;;;;45.70;42.50;;;5.90;99.90;;;;;;5052581;28;20039;-85
2024/03/07 01:54:57;;;;;;;41.30;38.00;;;5.90;99.90;;;;;;5036192;28;20033;-84
2024/03/07 01:57:23;;;;;;;47.80;44.33;;;5.90;99.90;;;;;;5051835;28;20048;-85
2024/03/07 01:59:52;;;;;;;62.40;58.60;;;5.90;99.90;;;;;;5042532;28;20033;-85
2024/03/07 02:02:19;;;;;;;54.37;50.73;;;5.90;99.90;;;;;;5050796;28;20041;-84
2024/03/07 02:04:45;;;;;;;57.30;53.50;;;5.80;99.90;;;;;;5038047;28;20041;-85
2024/03/07 02:07:11;;;;;;;43.70;39.97;;;5.70;99.90;;;;;;5049099;28;20052;-86
2024/03/07 02:09:38;;;;;;;50.87;47.37;;;5.80;99.90;;;;;;5043221;28;20036;-86
2024/03/07 02:12:04;;;;;;;47.07;43.67;;;5.70;99.90;;;;;;5047265;28;20519;-84
2024/03/07 02:14:30;;;;;;;63.27;58.43;;;5.70;99.90;;;;;;5035742;28;20038;-85
2024/03/07 02:16:56;;;;;;;49.43;46.10;;;5.70;99.90;;;;;;5047724;28;20040;-85
2024/03/07 02:19:23;;;;;;;58.80;55.50;;;5.60;99.90;;;;;;5049773;28;20041;-86
2024/03/07 02:21:49;;;;;;;56.23;52.50;;;5.60;99.90;;;;;;5051585;28;20376;-85
2024/03/07 02:24:15;;;;;;;44.87;41.23;;;5.50;99.90;;;;;;5047773;28;20029;-86
2024/03/07 02:26:41;;;;;;;45.53;42.63;;;5.50;99.90;;;;;;5038277;28;20030;-85
2024/03/07 02:29:07;;;;;;;51.37;47.67;;;5.60;99.90;;;;;;5034338;28;20475;-86
2024/03/07 02:31:37;;;;;;;49.57;46.50;;;5.60;99.90;;;;;;5038513;28;20044;-85
2024/03/07 02:34:03;;;;;;;46.67;43.30;;;5.60;99.90;;;;;;5034509;28;20049;-85
2024/03/07 02:36:30;;;;;;;44.23;40.87;;;5.50;99.90;;;;;;5042592;28;20041;-85
2024/03/07 02:38:56;;;;;;;44.53;41.13;;;5.50;99.90;;;;;;5033707;28;20056;-85
2024/03/07 02:41:22;;;;;;;35.47;32.50;;;5.50;99.90;;;;;;5042620;28;20033;-86
2024/03/07 02:43:48;;;;;;;42.50;39.53;;;5.50;99.90;;;;;;5053244;28;20048;-86
2024/03/07 02:46:14;;;;;;;41.13;38.27;;;5.50;99.90;;;;;;5052300;28;20044;-86
2024/03/07 02:48:41;;;;;;;39.60;36.67;;;5.50;99.90;;;;;;5051627;28;20049;-85
2024/03/07 02:51:07;;;;;;;60.07;56.10;;;5.40;99.90;;;;;;5041717;28;20041;-85
2024/03/07 02:53:33;;;;;;;62.27;58.67;;;5.30;99.90;;;;;;5044213;28;20036;-85
2024/03/07 02:55:59;;;;;;;67.87;63.37;;;5.40;99.90;;;;;;5052882;28;20028;-85
2024/03/07 02:58:25;;;;;;;81.90;76.30;;;5.40;99.90;;;;;;5046890;28;20038;-85
2024/03/07 03:00:57;;;;;;;79.57;73.90;;;5.40;99.90;;;;;;5040971;28;20055;-86
2024/03/07 03:03:23;;;;;;;50.70;47.10;;;5.50;99.90;;;;;;5035053;28;20492;-85
2024/03/07 03:05:49;;;;;;;58.43;54.53;;;5.50;99.90;;;;;;5037817;28;20036;-84
2024/03/07 03:08:16;;;;;;;54.13;50.33;;;5.50;99.90;;;;;;5034293;28;20048;-86
2024/03/07 03:10:42;;;;;;;81.70;76.47;;;5.40;99.90;;;;;;5036085;28;20021;-85
2024/03/07 03:13:08;;;;;;;61.87;57.97;;;5.40;99.90;;;;;;5031594;28;20037;-86
2024/03/07 03:15:34;;;;;;;56.70;52.97;;;5.30;99.90;;;;;;5044398;28;20446;-85
2024/03/07 03:18:00;;;;;;;56.57;52.83;;;5.40;99.90;;;;;;5049932;28;20052;-85
2024/03/07 03:20:33;;;;;;;58.43;54.33;;;5.40;99.90;;;;;;5049788;28;20594;-85
2024/03/07 03:23:00;;;;;;;54.60;51.07;;;5.40;99.90;;;;;;5039727;28;20037;-85
2024/03/07 03:25:26;;;;;;;50.57;47.37;;;5.40;99.90;;;;;;5043287;28;20045;-85
2024/03/07 03:27:52;;;;;;;43.83;40.73;;;5.30;99.90;;;;;;5050316;28;20051;-85
2024/03/07 03:30:18;;;;;;;35.80;33.10;;;5.30;99.90;;;;;;5044845;28;20030;-85
2024/03/07 03:32:46;;;;;;;41.97;39.13;;;5.30;99.90;;;;;;5048576;28;20470;-85
2024/03/07 03:35:15;;;;;;;75.80;71.17;;;5.30;99.90;;;;;;5045480;28;20045;-86
2024/03/07 03:37:44;;;;;;;71.30;66.70;;;5.40;99.90;;;;;;5036570;28;20040;-85
2024/03/07 03:40:11;;;;;;;58.90;55.20;;;5.30;99.90;;;;;;5042111;28;20376;-87
2024/03/07 03:42:40;;;;;;;91.20;85.40;;;5.30;99.90;;;;;;5047432;28;20033;-86
2024/03/07 03:45:07;;;;;;;54.03;50.53;;;5.40;99.90;;;;;;5040989;28;20052;-87
2024/03/07 03:47:37;;;;;;;38.80;36.00;;;5.30;99.90;;;;;;5031201;28;20506;-85
2024/03/07 03:50:07;;;;;;;61.00;57.33;;;5.30;99.90;;;;;;5032291;28;20403;-85
2024/03/07 03:52:34;;;;;;;44.70;41.60;;;5.30;99.90;;;;;;5040310;28;20467;-86
2024/03/07 03:55:01;;;;;;;57.90;54.47;;;5.30;99.90;;;;;;5030799;28;20045;-85
2024/03/07 03:57:28;;;;;;;39.50;37.07;;;5.20;99.90;;;;;;5040800;28;20037;-85
2024/03/07 03:59:54;;;;;;;60.83;57.40;;;5.20;99.90;;;;;;5031033;28;20041;-86
2024/03/07 04:02:23;;;;;;;44.10;41.00;;;5.10;99.90;;;;;;5043438;28;20408;-86
2024/03/07 04:04:51;;;;;;;53.87;50.43;;;5.20;99.90;;;;;;5040817;28;20372;-85
2024/03/07 04:07:20;;;;;;;43.30;40.60;;;5.20;99.90;;;;;;5050453;28;20036;-86
2024/03/07 04:09:47;;;;;;;55.33;51.57;;;5.20;99.90;;;;;;5043053;28;20478;-86
2024/03/07 04:12:13;;;;;;;51.10;47.47;;;5.10;99.90;;;;;;5040757;28;20388;-86
2024/03/07 04:14:42;;;;;;;57.23;53.47;;;5.10;99.90;;;;;;5031762;28;20041;-86
2024/03/07 04:17:11;;;;;;;58.23;54.40;;;5.10;99.90;;;;;;5039899;28;20041;-87
2024/03/07 04:19:39;;;;;;;55.50;52.00;;;5.10;99.90;;;;;;5054933;28;20044;-86
2024/03/07 04:22:05;;;;;;;50.00;46.90;;;5.20;99.90;;;;;;5050563;28;20048;-87
2024/03/07 04:24:34;;;;;;;54.83;51.53;;;5.10;99.90;;;;;;5044162;28;20037;-86
2024/03/07 04:27:04;;;;;;;56.27;52.40;;;5.10;99.90;;;;;;5041762;28;20460;-85
2024/03/07 04:29:32;;;;;;;49.47;46.97;;;5.10;99.90;;;;;;5044506;28;20060;-87
2024/03/07 04:31:59;;;;;;;40.00;37.70;;;5.10;99.90;;;;;;5041467;28;20033;-85
2024/03/07 04:34:25;;;;;;;48.30;45.33;;;5.10;99.90;;;;;;5058243;28;20039;-86
2024/03/07 04:36:51;;;;;;;50.20;47.23;;;5.10;99.90;;;;;;5051156;28;20025;-86
2024/03/07 04:39:32;;;;;;;48.60;45.53;;;5.00;99.90;;;;;;5040161;28;20017;-86
2024/03/07 04:42:02;;;;;;;59.15;55.28;;;5.00;99.90;;;;;;5055587;28;20040;-87
2024/03/07 04:44:29;;;;;;;59.23;55.53;;;5.10;99.90;;;;;;5055461;28;20033;-86
2024/03/07 04:46:55;;;;;;;55.13;51.63;;;5.10;99.90;;;;;;5041519;28;20423;-87
2024/03/07 04:49:23;;;;;;;65.33;61.10;;;5.10;99.90;;;;;;5052752;28;20049;-87
2024/03/07 04:51:53;;;;;;;71.97;67.83;;;5.20;99.90;;;;;;5048666;28;20059;-87
2024/03/07 04:54:19;;;;;;;79.33;74.53;;;5.30;99.90;;;;;;5049313;28;20033;-86
2024/03/07 04:56:46;;;;;;;63.17;58.97;;;5.30;99.90;;;;;;5055285;28;20044;-87
2024/03/07 04:59:12;;;;;;;52.03;48.67;;;5.30;99.90;;;;;;5053289;28;20036;-87
2024/03/07 05:01:39;;;;;;;53.30;50.13;;;5.20;99.90;;;;;;5051286;28;20077;-87
2024/03/07 05:04:06;;;;;;;69.43;65.30;;;5.20;99.90;;;;;;5043885;28;20399;-86
2024/03/07 05:06:33;;;;;;;52.83;49.63;;;5.10;99.90;;;;;;5050324;28;20048;-87
2024/03/07 05:09:01;;;;;;;46.97;44.53;;;5.00;99.90;;;;;;5056517;28;20107;-85
2024/03/07 05:11:30;;;;;;;67.67;63.57;;;5.00;99.90;;;;;;5054898;28;20402;-86
2024/03/07 05:14:00;;;;;;;61.20;57.70;;;4.90;99.90;;;;;;5041979;28;20045;-86
2024/03/07 05:16:31;;;;;;;73.87;70.17;;;4.90;99.90;;;;;;5046520;28;20033;-86
2024/03/07 05:19:00;;;;;;;84.38;79.55;;;4.80;99.90;;;;;;5051102;28;20391;-87
2024/03/07 05:21:37;;;;;;;51.40;48.47;;;4.80;99.90;;;;;;5050224;28;20033;-86
2024/03/07 05:24:07;;;;;;;54.27;51.07;;;4.70;99.90;;;;;;5044829;28;20451;-85
2024/03/07 05:26:37;;;;;;;41.92;39.42;;;4.70;99.90;;;;;;5038670;28;20030;-86
2024/03/07 05:29:09;;;;;;;67.00;62.80;;;4.70;99.90;;;;;;5035506;28;20492;-82
2024/03/07 05:31:44;;;;;;;56.53;53.27;;;4.70;99.90;;;;;;5040339;28;20037;-87
2024/03/07 05:34:10;;;;;;;45.87;43.13;;;4.70;99.90;;;;;;5051353;28;20043;-86
2024/03/07 05:36:36;;;;;;;44.83;41.90;;;4.60;99.90;;;;;;5054273;28;20096;-86
2024/03/07 05:39:10;;;;;;;59.53;55.97;;;4.60;99.90;;;;;;5052442;28;20048;-86
2024/03/07 05:41:37;;;;;;;67.90;63.87;;;4.60;99.90;;;;;;5045747;28;20504;-87
2024/03/07 05:44:08;;;;;;;37.57;35.47;;;4.60;99.90;;;;;;5040681;28;20057;-87
2024/03/07 05:46:35;;;;;;;63.60;59.88;;;4.60;99.90;;;;;;5039830;28;20037;-87
2024/03/07 05:49:03;;;;;;;45.03;42.47;;;4.60;99.90;;;;;;5047519;28;20391;-87
2024/03/07 05:51:29;;;;;;;57.50;54.00;;;4.60;99.90;;;;;;5045335;28;20029;-86
2024/03/07 05:53:55;;;;;;;45.03;42.63;;;4.60;99.90;;;;;;5041202;28;20045;-87
2024/03/07 05:56:22;;;;;;;70.00;65.80;;;4.60;99.90;;;;;;5050450;28;20032;-87
2024/03/07 05:58:48;;;;;;;54.63;50.93;;;4.60;99.90;;;;;;5054923;28;20029;-87
2024/03/07 06:01:15;;;;;;;40.70;38.47;;;4.60;99.90;;;;;;5052518;28;20040;-85
2024/03/07 06:03:41;;;;;;;33.43;31.77;;;4.60;99.90;;;;;;5043757;28;20045;-86
2024/03/07 06:06:11;;;;;;;63.23;59.53;;;4.60;99.90;;;;;;5042005;28;20470;-86
2024/03/07 06:08:38;;;;;;;48.23;45.47;;;4.60;99.90;;;;;;5053783;28;20052;-86
2024/03/07 06:11:04;;;;;;;39.13;37.07;;;4.70;99.90;;;;;;5052481;28;20048;-85
2024/03/07 06:13:30;;;;;;;52.87;49.53;;;4.70;99.90;;;;;;5053142;28;20127;-86
2024/03/07 06:15:56;;;;;;;52.83;49.83;;;4.70;99.90;;;;;;5053571;28;20505;-86
2024/03/07 06:18:22;;;;;;;94.73;89.03;;;4.60;99.90;;;;;;5054284;28;20033;-86
2024/03/07 06:20:48;;;;;;;36.87;34.97;;;4.60;99.90;;;;;;5053882;28;20029;-86
2024/03/07 06:23:16;;;;;;;97.93;92.43;;;4.70;99.90;;;;;;5048004;28;20029;-87
2024/03/07 06:25:54;;;;;;;60.57;56.73;;;4.70;99.90;;;;;;5046402;28;20037;-87
2024/03/07 06:28:20;;;;;;;100.80;94.93;;;4.70;99.90;;;;;;5050865;28;20049;-87
2024/03/07 06:30:46;;;;;;;60.20;56.63;;;4.70;99.90;;;;;;5052478;28;20644;-88
2024/03/07 06:33:13;;;;;;;159.90;151.10;;;4.70;99.90;;;;;;5050936;28;20037;-87
2024/03/07 06:35:39;;;;;;;96.13;90.53;;;4.80;99.90;;;;;;5053439;28;20037;-88
2024/03/07 06:38:06;;;;;;;122.83;115.87;;;4.80;99.90;;;;;;5053315;28;20040;-87
2024/03/07 06:40:32;;;;;;;138.53;131.00;;;4.80;99.90;;;;;;5051893;28;20041;-88
2024/03/07 06:42:59;;;;;;;135.70;128.03;;;4.90;99.90;;;;;;5036950;28;20053;-86
2024/03/07 06:45:26;;;;;;;133.60;125.60;;;4.90;99.90;;;;;;5033137;28;20026;-86
2024/03/07 06:47:55;;;;;;;118.67;111.77;;;4.90;99.90;;;;;;5032192;28;20029;-86
2024/03/07 06:50:21;;;;;;;127.53;119.90;;;4.90;99.90;;;;;;5032352;28;20029;-86
2024/03/07 06:52:47;;;;;;;115.30;108.40;;;4.90;99.90;;;;;;5047133;28;20048;-86
2024/03/07 06:55:18;;;;;;;62.70;58.93;;;4.80;99.90;;;;;;5053250;28;20024;-87
2024/03/07 06:57:47;;;;;;;142.68;134.68;;;4.80;99.90;;;;;;5053180;28;20033;-86
2024/03/07 07:00:18;;;;;;;117.37;110.57;;;4.80;99.90;;;;;;5051551;28;20039;-86
2024/03/07 07:02:45;;;;;;;76.90;72.53;;;4.80;99.90;;;;;;5038194;28;20048;-86
2024/03/07 07:05:11;;;;;;;96.97;91.77;;;4.80;99.90;;;;;;5031989;28;20041;-86
2024/03/07 07:07:44;;;;;;;210.83;198.13;;;4.80;99.90;;;;;;5033105;28;20030;-87
2024/03/07 07:10:15;;;;;;;203.90;191.50;;;4.90;99.90;;;;;;5035465;28;20041;-86
2024/03/07 07:12:45;;;;;;;53.30;50.60;;;4.90;99.90;;;;;;5038961;28;20021;-85
2024/03/07 07:15:12;;;;;;;85.00;79.90;;;5.00;99.90;;;;;;5046900;28;20048;-87
2024/03/07 07:17:38;;;;;;;95.20;89.80;;;5.00;99.90;;;;;;5037367;28;20030;-87
2024/03/07 07:20:13;;;;;;;122.53;112.40;;;5.10;99.90;;;;;;5036962;28;20037;-88
2024/03/07 07:22:40;;;;;;;98.00;92.23;;;5.10;99.90;;;;;;5036135;28;20041;-88
2024/03/07 07:25:12;;;;;;;127.80;120.33;;;5.20;99.90;;;;;;5052926;28;20406;-73
2024/03/07 07:27:44;;;;;;;116.57;109.70;;;5.20;99.90;;;;;;5032861;28;20049;-73
2024/03/07 07:30:10;;;;;;;;;;;5.20;99.90;;;;;;5036665;28;20048;-73
2024/03/07 07:32:36;;;;;;;81.57;77.03;;;5.30;99.90;;;;;;5040429;28;20255;-73
2024/03/07 07:35:03;;;;;;;61.77;57.97;;;5.40;99.90;;;;;;5032370;28;20046;-73
2024/03/07 07:37:29;;;;;;;129.67;122.30;;;5.50;99.90;;;;;;5051621;28;20025;-73
2024/03/07 07:39:55;;;;;;;74.73;70.90;;;5.60;99.90;;;;;;5049975;28;20510;-73
2024/03/07 07:42:21;;;;;;;71.23;67.23;;;5.70;99.90;;;;;;5047644;28;20025;-73
2024/03/07 07:44:47;;;;;;;107.67;101.73;;;5.90;99.90;;;;;;5052333;28;20029;-73
2024/03/07 07:47:13;;;;;;;69.93;66.10;;;6.00;99.90;;;;;;5034966;28;20040;-73
2024/03/07 07:49:39;;;;;;;77.73;73.23;;;6.20;99.90;;;;;;5044164;28;20044;-73
2024/03/07 07:52:06;;;;;;;60.90;57.55;;;6.30;99.90;;;;;;5050156;28;20093;-73
2024/03/07 07:54:32;;;;;;;60.80;57.50;;;6.40;99.90;;;;;;5041048;28;20041;-73
2024/03/07 07:56:58;;;;;;;41.22;39.05;;;6.50;99.90;;;;;;5047139;28;20061;-73
2024/03/07 07:59:24;;;;;;;67.55;63.88;;;6.50;99.90;;;;;;5052254;28;20033;-73
2024/03/07 08:01:52;;;;;;;60.75;57.40;;;6.70;99.90;;;;;;5037782;28;20038;-72
2024/03/07 08:04:19;;;;;;;56.00;52.78;;;6.80;99.90;;;;;;5037689;28;20040;-73
2024/03/07 08:06:45;;;;;;;71.35;67.32;;;6.90;99.90;;;;;;5051622;28;20037;-72
2024/03/07 08:09:16;;;;;;;66.75;63.40;;;7.10;99.90;;;;;;5047041;28;20396;-73
2024/03/07 08:11:42;;;;;;;;;;;7.10;99.90;;;;;;5042004;28;20052;-73
2024/03/07 08:14:08;;;;;;;50.15;47.35;;;7.30;99.90;;;;;;5032164;28;20426;-73
2024/03/07 08:16:35;;;;;;;51.58;48.60;;;7.40;99.90;;;;;;5037206;28;20029;-71
2024/03/07 08:19:03;;;;;;;60.88;57.40;;;7.40;99.90;;;;;;5049354;28;20040;-72
2024/03/07 08:21:29;;;;;;;61.45;57.33;;;7.50;99.90;;;;;;5047847;28;20045;-68
2024/03/07 08:23:55;;;;;;;74.00;69.63;;;7.60;99.90;;;;;;5049593;28;20037;-71
2024/03/07 08:26:21;;;;;;;72.60;68.75;;;7.80;99.90;;;;;;5044588;28;20037;-76
2024/03/07 08:28:47;;;;;;;71.57;67.63;;;7.90;99.90;;;;;;5051441;28;20391;-81
2024/03/07 08:31:13;;;;;;;89.72;85.25;;;8.20;99.90;;;;;;5033766;28;20041;-76
2024/03/07 08:33:39;;;;;;;83.32;78.60;;;8.10;99.90;;;;;;5031624;28;20388;-76
2024/03/07 08:36:09;;;;;;;143.13;135.10;;;8.00;99.90;;;;;;5035779;28;20049;-75
2024/03/07 08:38:37;;;;;;;278.08;259.05;;;7.90;99.90;;;;;;5032056;28;20486;-75
2024/03/07 08:41:03;;;;;;;106.55;100.30;;;7.90;99.90;;;;;;5039738;28;20029;-75
2024/03/07 08:43:29;;;;;;;69.47;65.80;;;8.00;99.90;;;;;;5051853;28;20053;-75
2024/03/07 08:45:55;;;;;;;124.28;117.68;;;8.10;99.90;;;;;;5049785;28;20045;-76
2024/03/07 08:48:21;;;;;;;107.30;101.32;;;8.20;99.90;;;;;;5034006;28;20056;-77
2024/03/07 08:50:48;;;;;;;76.38;72.45;;;8.30;99.90;;;;;;5046372;28;20033;-77
2024/03/07 08:53:14;;;;;;;141.30;134.10;;;8.60;99.90;;;;;;5031450;28;20033;-77
2024/03/07 08:55:40;;;;;;;382.02;358.45;;;8.90;99.90;;;;;;5031786;28;20029;-78
2024/03/07 08:58:06;;;;;;;106.65;100.95;;;8.80;99.90;;;;;;5047785;28;20510;-77
2024/03/07 09:00:32;;;;;;;70.60;66.53;;;8.80;99.90;;;;;;5050872;28;20048;-77
2024/03/07 09:02:59;;;;;;;520.15;487.63;;;9.00;99.90;;;;;;5050109;28;20044;-77
2024/03/07 09:05:25;;;;;;;131.00;123.78;;;9.10;99.90;;;;;;5052979;28;20482;-77
2024/03/07 09:07:52;;;;;;;176.57;167.25;;;9.10;99.90;;;;;;5044776;28;20108;-74
2024/03/07 09:10:19;;;;;;;162.13;153.27;;;9.20;99.90;;;;;;5048270;28;20044;-76
2024/03/07 09:12:45;;;;;;;633.45;585.90;;;9.30;99.90;;;;;;5050138;28;20049;-77
2024/03/07 09:15:11;;;;;;;95.70;90.82;;;9.40;99.90;;;;;;5053308;28;20044;-77
2024/03/07 09:17:38;;;;;;;111.05;105.00;;;9.50;99.90;;;;;;5024526;28;20037;-78
2024/03/07 09:20:05;;;;;;;96.30;91.10;;;9.70;99.90;;;;;;5053196;28;20498;-78
2024/03/07 09:22:32;;;;;;;83.65;78.97;;;9.40;99.90;;;;;;5052191;28;20029;-76
2024/03/07 09:24:59;;;;;;;115.25;108.45;;;9.50;99.90;;;;;;5049574;28;20407;-77
2024/03/07 09:27:25;;;;;;;111.22;105.38;;;9.40;99.90;;;;;;5044208;28;20025;-76
2024/03/07 09:29:51;;;;;;;110.55;104.25;;;9.50;99.90;;;;;;5045377;28;20384;-77
2024/03/07 09:32:18;;;;;;;92.40;87.78;;;9.60;99.90;;;;;;5039777;28;20403;-77
2024/03/07 09:34:44;;;;;;;119.65;113.45;;;9.70;99.90;;;;;;5043260;28;20041;-77
2024/03/07 09:37:10;;;;;;;145.55;137.32;;;9.80;99.90;;;;;;5045099;28;20056;-76
2024/03/07 09:39:36;;;;;;;159.60;151.18;;;10.00;99.90;;;;;;5052733;28;20070;-77
2024/03/07 09:42:03;;;;;;;129.93;122.80;;;10.10;99.90;;;;;;5053616;28;20040;-78
2024/03/07 09:44:29;;;;;;;1999.90;999.90;;;10.40;99.90;;;;;;5053371;28;20053;-78
2024/03/07 09:46:58;;;;;;;1999.90;999.90;;;10.30;99.90;;;;;;5041588;28;20049;-78
2024/03/07 09:49:25;;;;;;;1999.90;999.90;;;10.20;99.90;;;;;;5037112;28;20056;-82
2024/03/07 09:51:57;;;;;;;1999.90;999.90;;;10.30;99.90;;;;;;5030605;28;20487;-76
2024/03/07 09:54:24;;;;;;;1999.90;999.90;;;10.50;99.90;;;;;;5047752;28;20033;-81
2024/03/07 09:56:53;;;;;;;1999.90;999.90;;;10.50;99.90;;;;;;5052315;28;20053;-81
2024/03/07 09:59:22;;;;;;;1999.90;999.90;;;10.50;99.90;;;;;;5052068;28;20052;-81
2024/03/07 10:01:50;;;;;;;1999.90;999.90;;;10.50;99.90;;;;;;5053105;28;20487;-80
2024/03/07 10:04:16;;;;;;;1999.90;999.90;;;10.60;99.90;;;;;;5026251;28;20040;-80
2024/03/07 10:06:45;;;;;;;1999.90;999.90;;;10.80;99.90;;;;;;5034202;28;20108;-80
2024/03/07 10:09:14;;;;;;;1999.90;999.90;;;10.60;99.90;;;;;;5044407;28;20491;-80
2024/03/07 10:11:43;;;;;;;1999.90;999.90;;;10.60;99.90;;;;;;5042684;28;20476;-80
2024/03/07 10:14:10;;;;;;;1999.90;999.90;;;10.70;99.90;;;;;;5041516;28;20048;-79
2024/03/07 10:16:36;;;;;;;1999.90;999.90;;;10.70;99.90;;;;;;5051195;28;20025;-80
2024/03/07 10:19:05;;;;;;;1999.90;999.90;;;10.90;99.90;;;;;;5050655;28;20036;-80
2024/03/07 10:21:33;;;;;;;1999.90;999.90;;;11.00;99.90;;;;;;5047957;28;20032;-80
2024/03/07 10:24:11;;;;;;;1999.90;999.90;;;11.20;99.90;;;;;;5043744;28;20037;-80
2024/03/07 10:26:37;;;;;;;1999.90;999.90;;;11.40;99.90;;;;;;5038751;28;20431;-81
2024/03/07 10:29:09;;;;;;;1999.90;999.90;;;11.60;99.90;;;;;;5037652;28;20516;-79
2024/03/07 10:31:38;;;;;;;1999.90;999.90;;;11.60;99.90;;;;;;5030961;28;20036;-81
2024/03/07 10:34:04;;;;;;;1999.90;999.90;;;11.70;99.90;;;;;;5032680;28;20525;-80
2024/03/07 10:36:30;;;;;;;1999.90;999.90;;;11.70;99.90;;;;;;5038097;28;20046;-80
2024/03/07 10:39:14;;;;;;;1999.90;999.90;;;11.80;99.90;;;;;;5047331;28;20030;-81
2024/03/07 10:41:43;;;;;;;1999.90;999.90;;;11.80;99.90;;;;;;5052327;28;20032;-81
2024/03/07 10:44:10;;;;;;;1999.90;999.90;;;12.00;99.90;;;;;;5052912;28;20395;-81
2024/03/07 10:46:36;;;;;;;1999.90;999.90;;;12.00;99.90;;;;;;5033178;28;20037;-81
2024/03/07 10:49:07;;;;;;;1999.90;999.90;;;12.00;99.90;;;;;;5043582;28;20028;-80
2024/03/07 10:51:39;;;;;;;;;;;12.00;99.90;;;;;;5052712;28;20033;-80
2024/03/07 10:54:26;;;;;;;1999.90;999.90;;;12.10;99.90;;;;;;5052056;28;20383;-80
2024/03/07 10:57:08;;;;;;;1999.90;999.90;;;12.10;99.90;;;;;;5051437;28;20056;-86
2024/03/07 10:59:34;;;;;;;1999.90;999.90;;;12.00;99.90;;;;;;5038655;28;20052;-86
2024/03/07 11:02:27;;;;;;;1999.90;999.90;;;12.00;99.90;;;;;;5051835;28;20445;-87
2024/03/07 11:04:53;;;;;;;1999.90;999.90;;;12.00;99.90;;;;;;5050294;28;20025;-86
2024/03/07 11:07:21;;;;;;;1999.90;999.90;;;11.90;99.90;;;;;;5051462;28;20036;-86
2024/03/07 11:09:48;;;;;;;1999.90;999.90;;;11.80;99.90;;;;;;5056648;28;20499;-85
2024/03/07 11:12:15;;;;;;;1999.90;999.90;;;11.80;99.90;;;;;;5053167;28;20383;-86
2024/03/07 11:14:41;;;;;;;1999.90;999.90;;;11.90;99.90;;;;;;5052969;28;20041;-86
2024/03/07 11:17:08;;;;;;;1999.90;999.90;;;12.00;99.90;;;;;;5052368;28;20033;-86
2024/03/07 11:19:38;;;;;;;1999.90;999.90;;;12.20;99.90;;;;;;5043889;28;20042;-85
2024/03/07 11:22:15;;;;;;;1999.90;999.90;;;12.30;99.90;;;;;;5048146;28;20491;-86
2024/03/07 11:24:42;;;;;;;1999.90;999.90;;;12.40;99.90;;;;;;5051471;28;20380;-86
2024/03/07 11:27:14;;;;;;;1999.90;999.90;;;12.40;99.90;;;;;;5050408;28;20049;-85
2024/03/07 11:29:48;;;;;;;1999.90;999.90;;;12.50;99.90;;;;;;5046118;28;20472;-85
2024/03/07 11:32:14;;;;;;;1999.90;999.90;;;12.50;99.90;;;;;;5036458;28;20037;-86
2024/03/07 11:34:41;;;;;;;1999.90;999.90;;;12.60;99.90;;;;;;5045021;28;20036;-85
2024/03/07 11:37:17;;;;;;;1999.90;999.90;;;12.60;99.90;;;;;;5047296;28;20478;-87
2024/03/07 11:39:47;;;;;;;1999.90;999.90;;;12.60;99.90;;;;;;5040600;28;20468;-86
2024/03/07 11:42:26;;;;;;;1999.90;999.90;;;12.70;99.90;;;;;;5047428;28;20037;-85
2024/03/07 11:44:55;;;;;;;1999.90;999.90;;;12.90;99.90;;;;;;5050988;28;20033;-86
2024/03/07 11:47:28;;;;;;;1999.90;999.90;;;13.00;99.90;;;;;;5041516;28;20029;-85
2024/03/07 11:49:57;;;;;;;1999.90;999.90;;;13.00;99.90;;;;;;5031241;28;20480;-86
2024/03/07 11:52:24;;;;;;;1999.90;999.90;;;13.00;99.90;;;;;;5046447;28;20041;-86
2024/03/07 11:54:51;;;;;;;1999.90;999.90;;;13.10;99.90;;;;;;5052493;28;20040;-85
2024/03/07 11:57:19;;;;;;;1999.90;999.90;;;13.10;99.90;;;;;;5040779;28;20037;-86
2024/03/07 11:59:46;;;;;;;1999.90;999.90;;;13.00;99.90;;;;;;5030962;28;20392;-77
2024/03/07 12:02:17;;;;;;;1999.90;999.90;;;13.00;99.90;;;;;;5047257;28;20518;-85
2024/03/07 12:04:44;;;;;;;1999.90;999.90;;;13.00;99.90;;;;;;5042706;28;20041;-85
2024/03/07 12:07:10;;;;;;;1999.90;999.90;;;12.90;99.90;;;;;;5041170;28;20030;-86
2024/03/07 12:09:38;;;;;;;1999.90;999.90;;;13.10;99.90;;;;;;5029323;28;20064;-80
2024/03/07 12:12:09;;;;;;;1999.90;999.90;;;13.20;99.90;;;;;;5014881;28;20396;-82
2024/03/07 12:14:35;;;;;;;;;;;13.20;99.90;;;;;;5030874;28;20491;-81
2024/03/07 12:17:03;;;;;;;1999.90;999.90;;;13.20;99.90;;;;;;5041291;28;19963;-83
2024/03/07 12:19:34;;;;;;;1999.90;999.90;;;13.20;99.90;;;;;;5013821;28;20037;-82
2024/03/07 12:22:01;;;;;;;1999.90;999.90;;;13.20;99.90;;;;;;5040242;28;20022;-83
2024/03/07 12:24:28;;;;;;;1999.90;999.90;;;13.30;99.90;;;;;;5030383;28;20268;-82
2024/03/07 12:27:15;;;;;;;1999.90;999.90;;;13.40;99.90;;;;;;5044218;28;20041;-82
2024/03/07 12:29:43;;;;;;;1999.90;999.90;;;13.40;99.90;;;;;;5050275;28;20052;-82